Time;durP1;ratioP1;P1;durP2;ratioP2;P2;SDS_P1;SDS_P2;PMS_P1;PMS_P2;Temp;Humidity;BMP_temperature;BMP_pressure;BME280_temperature;BME280_humidity;BME280_pressure;Samples;Min_cycle;Max_cycle;Signal;HPM_P1;HPM_P2
2021/03/27 00:01:42;;;;;;;0.00;0.00;;;15.60;66.50;;;;;;4197256;28;20426;-46
2021/03/27 00:04:10;;;;;;;0.00;0.00;;;15.60;66.60;;;;;;4197238;28;20506;-44
2021/03/27 00:06:38;;;;;;;0.20;0.20;;;15.60;66.80;;;;;;4197065;28;20048;-44
2021/03/27 00:09:06;;;;;;;0.00;0.00;;;15.60;67.00;;;;;;4195783;28;20485;-45
2021/03/27 00:11:41;;;;;;;0.00;0.00;;;15.60;67.00;;;;;;4197143;28;20136;-44
2021/03/27 00:14:05;;;;;;;0.00;0.00;;;15.60;67.20;;;;;;4196858;28;20131;-45
2021/03/27 00:16:31;;;;;;;0.08;0.08;;;15.60;67.20;;;;;;4196855;28;20154;-44
2021/03/27 00:19:00;;;;;;;0.32;0.32;;;15.60;67.20;;;;;;4195628;28;20056;-44
2021/03/27 00:21:31;;;;;;;0.00;0.00;;;15.60;68.10;;;;;;4196959;28;20048;-45
2021/03/27 00:23:56;;;;;;;0.00;0.00;;;15.50;67.20;;;;;;4196201;28;20056;-45
2021/03/27 00:26:24;;;;;;;0.20;0.20;;;15.60;67.30;;;;;;4196935;28;20339;-44
2021/03/27 00:28:51;;;;;;;0.00;0.00;;;15.60;67.40;;;;;;4196563;28;20048;-46
2021/03/27 00:31:16;;;;;;;0.00;0.00;;;15.50;67.40;;;;;;4196743;28;20134;-46
2021/03/27 00:33:39;;;;;;;0.10;0.10;;;15.50;67.50;;;;;;4196729;28;20414;-45
2021/03/27 00:36:03;;;;;;;0.00;0.00;;;15.50;67.50;;;;;;4196691;28;20430;-44
2021/03/27 00:38:29;;;;;;;0.00;0.00;;;15.50;67.60;;;;;;4179064;28;20106;-43
2021/03/27 00:40:53;;;;;;;0.00;0.00;;;15.50;67.70;;;;;;4192937;28;20490;-46
2021/03/27 00:43:19;;;;;;;0.00;0.00;;;15.60;67.70;;;;;;4182540;28;20064;-45
2021/03/27 00:45:43;;;;;;;0.00;0.00;;;15.70;67.50;;;;;;4196518;28;20049;-44
2021/03/27 00:48:09;;;;;;;0.00;0.00;;;15.80;67.10;;;;;;4195325;28;20542;-46
2021/03/27 00:50:45;;;;;;;0.00;0.00;;;15.80;66.90;;;;;;4196502;28;20127;-47
2021/03/27 00:53:12;;;;;;;0.00;0.00;;;15.80;66.80;;;;;;4195246;28;20048;-46
2021/03/27 00:55:37;;;;;;;0.08;0.08;;;15.80;66.60;;;;;;4195296;28;20173;-45
2021/03/27 00:58:03;;;;;;;0.00;0.00;;;15.80;66.60;;;;;;4180550;28;20064;-47
2021/03/27 01:00:30;;;;;;;0.00;0.00;;;15.80;66.60;;;;;;4195049;28;20060;-46
2021/03/27 01:03:32;;;;;;;0.00;0.00;;;15.80;66.80;;;;;;4161250;28;20054;-45
2021/03/27 01:06:16;;;;;;;0.00;0.00;;;15.80;66.90;;;;;;4196152;28;20218;-44
2021/03/27 01:08:58;;;;;;;0.00;0.00;;;15.80;67.00;;;;;;4196111;28;20162;-46
2021/03/27 01:11:51;;;;;;;0.00;0.00;;;15.80;67.20;;;;;;4195718;28;20056;-46
2021/03/27 01:14:18;;;;;;;0.00;0.00;;;15.70;67.20;;;;;;4192442;28;20592;-44
2021/03/27 01:16:45;;;;;;;0.52;0.52;;;15.70;67.40;;;;;;4188766;28;20048;-45
2021/03/27 01:19:12;;;;;;;0.10;0.10;;;15.70;67.40;;;;;;4196051;28;20048;-44
2021/03/27 01:21:35;;;;;;;0.00;0.00;;;15.70;67.60;;;;;;4196027;28;20127;-46
2021/03/27 01:23:58;;;;;;;0.00;0.00;;;15.60;67.70;;;;;;4196107;28;20059;-44
2021/03/27 01:26:24;;;;;;;0.00;0.00;;;15.60;67.50;;;;;;4195814;28;20052;-45
2021/03/27 01:28:53;;;;;;;0.38;0.30;;;15.60;67.60;;;;;;4195846;28;20051;-44
2021/03/27 01:31:17;;;;;;;0.00;0.00;;;15.80;67.50;;;;;;4195926;28;20140;-44
2021/03/27 01:33:50;;;;;;;0.00;0.00;;;15.80;67.10;;;;;;4195639;28;20053;-45
2021/03/27 01:36:16;;;;;;;0.00;0.00;;;15.90;66.70;;;;;;4195740;28;20064;-47
2021/03/27 01:38:43;;;;;;;0.00;0.00;;;16.00;66.60;;;;;;4195396;28;20063;-45
2021/03/27 01:41:14;;;;;;;0.00;0.00;;;16.00;67.30;;;;;;4195179;28;20058;-47
2021/03/27 01:43:41;;;;;;;0.00;0.00;;;16.00;66.20;;;;;;4195534;28;20059;-48
2021/03/27 01:46:31;;;;;;;0.00;0.00;;;16.00;66.20;;;;;;4195702;28;20059;-48
2021/03/27 01:49:04;;;;;;;0.00;0.00;;;16.10;66.20;;;;;;4194649;28;20057;-44
2021/03/27 01:51:47;;;;;;;0.00;0.00;;;16.00;66.10;;;;;;4195643;28;20052;-47
2021/03/27 01:54:11;;;;;;;0.10;0.10;;;16.00;66.30;;;;;;4195539;28;20142;-54
2021/03/27 01:56:44;;;;;;;0.00;0.00;;;16.00;66.40;;;;;;4193577;28;20139;-46
2021/03/27 01:59:10;;;;;;;0.00;0.00;;;15.90;66.50;;;;;;4195443;28;20513;-48
2021/03/27 02:01:34;;;;;;;0.00;0.00;;;15.90;66.70;;;;;;4195450;28;20489;-44
2021/03/27 02:04:05;;;;;;;0.00;0.00;;;15.90;66.90;;;;;;4195711;28;20487;-44
2021/03/27 02:06:31;;;;;;;0.00;0.00;;;15.90;66.80;;;;;;4195668;28;20048;-47
2021/03/27 02:09:06;;;;;;;0.00;0.00;;;16.00;66.50;;;;;;4195587;28;20514;-48
2021/03/27 02:11:36;;;;;;;0.00;0.00;;;16.10;66.20;;;;;;4195265;28;20048;-46
2021/03/27 02:14:03;;;;;;;0.00;0.00;;;16.10;66.00;;;;;;4195121;28;20075;-45
2021/03/27 02:16:31;;;;;;;0.00;0.00;;;16.10;65.90;;;;;;4195422;28;20465;-48
2021/03/27 02:19:03;;;;;;;0.00;0.00;;;16.10;65.90;;;;;;4195370;28;20080;-45
2021/03/27 02:21:47;;;;;;;0.00;0.00;;;16.10;65.80;;;;;;4195436;28;20499;-44
2021/03/27 02:24:35;;;;;;;0.00;0.00;;;16.10;65.80;;;;;;4195350;28;20128;-45
2021/03/27 02:27:05;;;;;;;0.00;0.00;;;16.10;65.70;;;;;;4195390;28;20052;-44
2021/03/27 02:29:57;;;;;;;0.00;0.00;;;16.10;65.90;;;;;;4194439;28;20419;-49
2021/03/27 02:32:25;;;;;;;0.00;0.00;;;16.10;66.00;;;;;;4195380;28;20052;-44
2021/03/27 02:34:50;;;;;;;0.00;0.00;;;16.00;66.10;;;;;;4195099;28;20160;-44
2021/03/27 02:37:21;;;;;;;0.00;0.00;;;16.00;66.20;;;;;;4195408;28;20060;-45
2021/03/27 02:39:50;;;;;;;0.00;0.00;;;15.90;66.40;;;;;;4195270;28;20060;-44
2021/03/27 02:42:27;;;;;;;0.00;0.00;;;15.90;66.60;;;;;;4195350;28;20102;-45
2021/03/27 02:44:54;;;;;;;0.00;0.00;;;16.00;66.40;;;;;;4178643;28;20568;-46
2021/03/27 02:47:40;;;;;;;0.00;0.00;;;16.10;66.00;;;;;;4195760;28;20430;-43
2021/03/27 02:50:16;;;;;;;0.00;0.00;;;16.10;65.70;;;;;;4194481;28;20061;-44
2021/03/27 02:52:41;;;;;;;0.00;0.00;;;16.20;65.60;;;;;;4198264;28;20544;-43
2021/03/27 02:55:19;;;;;;;0.00;0.00;;;16.20;65.60;;;;;;4198304;28;20044;-44
2021/03/27 02:57:45;;;;;;;0.00;0.00;;;16.20;65.60;;;;;;4197841;28;20412;-44
2021/03/27 03:00:14;;;;;;;0.00;0.00;;;16.10;65.50;;;;;;4197912;28;20486;-44
2021/03/27 03:02:47;;;;;;;0.00;0.00;;;16.10;65.70;;;;;;4197957;28;20052;-44
2021/03/27 03:05:13;;;;;;;0.13;0.13;;;16.00;65.80;;;;;;4198132;28;20562;-44
2021/03/27 03:07:42;;;;;;;0.00;0.00;;;16.00;65.90;;;;;;4198146;28;20051;-45
2021/03/27 03:10:18;;;;;;;0.00;0.00;;;16.10;66.00;;;;;;4197831;28;20137;-44
2021/03/27 03:12:50;;;;;;;0.00;0.00;;;16.20;65.50;;;;;;4197850;28;20479;-44
2021/03/27 03:15:22;;;;;;;0.00;0.00;;;16.30;65.20;;;;;;4197837;28;20470;-44
2021/03/27 03:17:51;;;;;;;0.00;0.00;;;16.30;64.90;;;;;;4198121;28;20052;-43
2021/03/27 03:20:22;;;;;;;0.00;0.00;;;16.30;64.90;;;;;;4197752;28;20052;-43
2021/03/27 03:22:57;;;;;;;0.00;0.00;;;16.30;65.00;;;;;;4197880;28;20056;-43
2021/03/27 03:25:21;;;;;;;0.00;0.00;;;16.30;64.90;;;;;;4197962;28;20130;-44
2021/03/27 03:27:55;;;;;;;0.00;0.00;;;16.30;64.70;;;;;;4197597;28;20049;-46
2021/03/27 03:30:28;;;;;;;0.00;0.00;;;16.40;64.50;;;;;;4181264;28;20709;-44
2021/03/27 03:33:10;;;;;;;0.00;0.00;;;16.40;65.10;;;;;;4181180;28;20059;-46
2021/03/27 03:35:40;;;;;;;0.00;0.00;;;16.40;64.20;;;;;;4181281;28;20091;-44
2021/03/27 03:38:21;;;;;;;0.00;0.00;;;16.60;63.90;;;;;;4181013;28;20049;-46
2021/03/27 03:40:54;;;;;;;0.00;0.00;;;16.80;63.00;;;;;;4180940;28;20468;-45
2021/03/27 03:43:23;;;;;;;0.00;0.00;;;17.00;62.30;;;;;;4194950;28;20048;-44
2021/03/27 03:46:01;;;;;;;0.00;0.00;;;17.00;62.00;;;;;;4197474;28;20044;-44
2021/03/27 03:48:58;;;;;;;0.00;0.00;;;17.00;62.10;;;;;;4196903;28;20048;-46
2021/03/27 03:51:28;;;;;;;0.00;0.00;;;16.90;62.20;;;;;;4197082;28;20040;-44
2021/03/27 03:54:01;;;;;;;0.15;0.15;;;16.80;62.50;;;;;;4197228;28;20499;-44
2021/03/27 03:56:31;;;;;;;0.10;0.10;;;16.80;62.80;;;;;;4196773;28;20487;-45
2021/03/27 03:59:12;;;;;;;0.22;0.20;;;16.70;62.80;;;;;;4197465;28;20056;-44
2021/03/27 04:01:43;;;;;;;0.00;0.00;;;16.70;63.70;;;;;;4196757;28;20523;-45
2021/03/27 04:04:08;;;;;;;0.00;0.00;;;16.60;63.00;;;;;;4197355;28;20567;-44
2021/03/27 04:06:32;;;;;;;0.03;0.03;;;16.60;63.20;;;;;;4196981;28;20148;-48
2021/03/27 04:08:58;;;;;;;0.00;0.00;;;16.60;63.30;;;;;;4196941;28;20127;-44
2021/03/27 04:11:40;;;;;;;0.00;0.00;;;16.60;63.10;;;;;;4196903;28;20494;-45
2021/03/27 04:14:04;;;;;;;0.15;0.15;;;16.60;63.10;;;;;;4196918;28;20056;-44
2021/03/27 04:16:27;;;;;;;0.32;0.32;;;16.60;63.30;;;;;;4196922;28;20056;-43
2021/03/27 04:18:59;;;;;;;0.00;0.00;;;16.50;63.40;;;;;;4196906;28;20506;-45
2021/03/27 04:21:25;;;;;;;0.00;0.00;;;16.70;63.20;;;;;;4196917;28;20052;-44
2021/03/27 04:23:53;;;;;;;0.00;0.00;;;16.80;62.40;;;;;;4196979;28;20144;-45
2021/03/27 04:26:40;;;;;;;0.00;0.00;;;16.90;61.90;;;;;;4196764;28;20063;-44
2021/03/27 04:29:22;;;;;;;0.00;0.00;;;16.90;61.90;;;;;;4196681;28;20060;-44
2021/03/27 04:31:48;;;;;;;0.20;0.20;;;16.90;61.90;;;;;;4196783;28;20118;-45
2021/03/27 04:34:13;;;;;;;0.00;0.00;;;16.80;62.00;;;;;;4196880;28;20102;-47
2021/03/27 04:36:39;;;;;;;0.00;0.00;;;16.80;62.30;;;;;;4196794;28;20827;-46
2021/03/27 04:39:05;;;;;;;0.00;0.00;;;16.70;62.40;;;;;;4196505;28;20059;-48
2021/03/27 04:41:37;;;;;;;0.00;0.00;;;16.70;62.60;;;;;;4196216;28;20056;-48
2021/03/27 04:44:00;;;;;;;;;;;16.60;62.80;;;;;;4196846;28;20502;-44
2021/03/27 04:46:29;;;;;;;3.63;2.03;;;16.50;63.10;;;;;;4196188;28;19978;-45
2021/03/27 04:48:54;;;;;;;0.00;0.00;;;16.60;63.20;;;;;;4196372;28;20131;-44
2021/03/27 04:51:42;;;;;;;0.00;0.00;;;16.70;62.80;;;;;;4196495;28;20064;-45
2021/03/27 04:54:12;;;;;;;0.00;0.00;;;16.80;62.70;;;;;;4196302;28;20131;-44
2021/03/27 04:56:45;;;;;;;0.00;0.00;;;16.80;62.50;;;;;;4195894;28;20079;-44
2021/03/27 04:59:16;;;;;;;0.00;0.00;;;16.70;62.60;;;;;;4196075;28;20048;-46
2021/03/27 05:01:45;;;;;;;0.00;0.00;;;16.60;62.80;;;;;;4190066;28;20558;-44
2021/03/27 05:04:13;;;;;;;0.00;0.00;;;16.60;63.10;;;;;;4196132;28;20059;-44
2021/03/27 05:06:38;;;;;;;0.00;0.00;;;16.50;63.20;;;;;;4196290;28;20492;-44
2021/03/27 05:09:41;;;;;;;0.00;0.00;;;16.60;63.40;;;;;;4195605;28;20053;-44
2021/03/27 05:12:10;;;;;;;0.10;0.10;;;16.70;62.90;;;;;;4176633;28;20076;-44
2021/03/27 05:14:56;;;;;;;0.00;0.00;;;16.90;62.20;;;;;;4179526;28;20053;-45
2021/03/27 05:17:24;;;;;;;0.00;0.00;;;16.90;61.90;;;;;;4181019;28;20529;-44
2021/03/27 05:19:52;;;;;;;0.00;0.00;;;16.90;62.00;;;;;;4195727;28;20052;-44
2021/03/27 05:22:28;;;;;;;0.00;0.00;;;16.90;62.10;;;;;;4195976;28;20049;-44
2021/03/27 05:25:20;;;;;;;0.22;0.22;;;16.80;62.30;;;;;;4195913;28;20502;-44
2021/03/27 05:27:45;;;;;;;8.15;1.35;;;16.70;62.50;;;;;;4176614;28;20063;-44
2021/03/27 05:30:22;;;;;;;0.13;0.13;;;16.70;62.90;;;;;;4179284;28;20134;-45
2021/03/27 05:32:57;;;;;;;0.00;0.00;;;16.60;63.10;;;;;;4179120;28;20500;-44
2021/03/27 05:35:28;;;;;;;0.00;0.00;;;16.50;63.20;;;;;;4178288;28;20052;-47
2021/03/27 05:38:00;;;;;;;0.00;0.00;;;16.60;63.10;;;;;;4187071;28;20047;-44
2021/03/27 05:40:59;;;;;;;0.00;0.00;;;16.70;62.80;;;;;;4195510;28;20049;-44
2021/03/27 05:43:39;;;;;;;0.10;0.10;;;16.70;62.50;;;;;;4180115;28;20055;-46
2021/03/27 05:46:50;;;;;;;0.00;0.00;;;16.70;62.50;;;;;;4195695;28;20052;-46
2021/03/27 05:49:30;;;;;;;;;;;16.80;62.30;;;;;;4160833;28;20060;-44
2021/03/27 05:52:23;;;;;;;0.00;0.00;;;16.70;62.10;;;;;;4195604;28;20386;-51
2021/03/27 05:55:12;;;;;;;0.00;0.00;;;16.70;62.20;;;;;;4195369;28;20053;-46
2021/03/27 05:58:10;;;;;;;0.00;0.00;;;16.60;62.30;;;;;;4186667;28;20763;-45
2021/03/27 06:00:40;;;;;;;0.00;0.00;;;16.60;62.40;;;;;;4195122;28;20056;-44
2021/03/27 06:03:36;;;;;;;0.00;0.00;;;16.60;62.70;;;;;;4195159;28;20048;-45
2021/03/27 06:06:27;;;;;;;0.00;0.00;;;16.60;62.80;;;;;;4193995;28;20049;-46
2021/03/27 06:09:00;;;;;;;0.10;0.10;;;16.80;62.70;;;;;;4195284;28;20045;-49
2021/03/27 06:11:38;;;;;;;0.00;0.00;;;17.00;61.80;;;;;;4195479;28;20499;-45
2021/03/27 06:14:37;;;;;;;0.00;0.00;;;17.10;61.70;;;;;;4195624;28;20052;-45
2021/03/27 06:17:16;;;;;;;0.00;0.00;;;17.10;61.20;;;;;;4194041;28;20053;-44
2021/03/27 06:20:29;;;;;;;0.00;0.00;;;17.10;61.20;;;;;;4194851;28;20542;-46
2021/03/27 06:23:20;;;;;;;0.00;0.00;;;17.00;61.30;;;;;;4116565;28;20054;-45
2021/03/27 06:25:56;;;;;;;0.00;0.00;;;17.00;61.70;;;;;;4198281;28;20506;-44
2021/03/27 06:28:45;;;;;;;0.00;0.00;;;16.80;62.00;;;;;;4197286;28;20055;-44
2021/03/27 06:31:31;;;;;;;0.00;0.00;;;16.70;62.50;;;;;;4182009;28;20507;-44
2021/03/27 06:34:22;;;;;;;0.00;0.00;;;16.60;62.90;;;;;;4182083;28;20087;-46
2021/03/27 06:37:00;;;;;;;0.00;0.00;;;16.50;63.30;;;;;;4187219;28;20131;-47
2021/03/27 06:39:44;;;;;;;0.00;0.00;;;16.50;63.90;;;;;;4198361;28;20419;-45
2021/03/27 06:42:44;;;;;;;0.00;0.00;;;16.40;63.30;;;;;;4198400;28;20060;-44
2021/03/27 06:45:34;;;;;;;0.00;0.00;;;16.40;63.50;;;;;;4197555;28;20114;-45
2021/03/27 06:48:31;;;;;;;0.25;0.25;;;16.30;63.80;;;;;;4198253;28;20052;-44
2021/03/27 06:51:07;;;;;;;0.00;0.00;;;16.20;63.80;;;;;;4198264;28;20060;-46
2021/03/27 06:53:38;;;;;;;0.00;0.00;;;16.30;63.80;;;;;;4198195;28;20449;-45
2021/03/27 06:56:39;;;;;;;0.00;0.00;;;16.50;63.40;;;;;;4198019;28;20151;-44
2021/03/27 06:59:11;;;;;;;0.10;0.10;;;16.60;62.70;;;;;;4161344;28;20521;-51
2021/03/27 07:01:44;;;;;;;;;;;16.70;62.30;;;;;;4198487;28;20060;-49
2021/03/27 07:04:45;;;;;;;0.00;0.00;;;16.80;62.10;;;;;;4198122;28;19925;-46
2021/03/27 07:07:29;;;;;;;0.00;0.00;;;16.70;61.90;;;;;;4197944;28;20068;-44
2021/03/27 07:10:30;;;;;;;0.00;0.00;;;16.70;62.10;;;;;;4198090;28;20048;-45
2021/03/27 07:13:13;;;;;;;1.08;1.08;;;16.70;62.60;;;;;;4197966;28;20499;-45
2021/03/27 07:15:48;;;;;;;0.00;0.00;;;16.60;62.40;;;;;;4197286;28;20414;-44
2021/03/27 07:18:34;;;;;;;0.00;0.00;;;16.60;62.20;;;;;;4191964;28;20052;-46
2021/03/27 07:21:14;;;;;;;0.00;0.00;;;16.60;61.90;;;;;;4181184;28;20525;-47
2021/03/27 07:24:04;;;;;;;0.00;0.00;;;16.60;61.40;;;;;;4181311;28;20127;-45
2021/03/27 07:27:13;;;;;;;0.00;0.00;;;16.60;61.00;;;;;;4181009;28;20057;-47
2021/03/27 07:29:59;;;;;;;0.00;0.00;;;16.60;60.70;;;;;;4184877;28;20137;-45
2021/03/27 07:32:32;;;;;;;0.10;0.10;;;16.60;60.20;;;;;;4196983;28;20130;-46
2021/03/27 07:35:16;;;;;;;0.00;0.00;;;16.50;59.70;;;;;;4197581;28;20063;-45
2021/03/27 07:38:16;;;;;;;0.00;0.00;;;16.40;59.50;;;;;;4184351;28;20048;-50
2021/03/27 07:40:43;;;;;;;0.00;0.00;;;16.40;59.40;;;;;;4180931;28;20060;-45
2021/03/27 07:43:39;;;;;;;0.00;0.00;;;16.30;59.30;;;;;;4180981;28;20112;-45
2021/03/27 07:46:21;;;;;;;0.00;0.00;;;16.20;59.40;;;;;;4184816;28;20546;-47
2021/03/27 07:49:09;;;;;;;;;;;16.10;59.50;;;;;;4197853;28;20511;-45
2021/03/27 07:51:57;;;;;;;0.00;0.00;;;16.10;59.40;;;;;;4197329;28;19926;-46
2021/03/27 07:54:41;;;;;;;0.00;0.00;;;16.00;59.50;;;;;;4197399;28;20053;-44
2021/03/27 07:57:47;;;;;;;6.82;1.45;;;16.00;59.50;;;;;;4196834;28;20156;-44
2021/03/27 08:00:44;;;;;;;0.10;0.10;;;16.00;59.50;;;;;;4197014;28;20511;-46
2021/03/27 08:03:40;;;;;;;0.05;0.05;;;16.00;59.50;;;;;;4197217;28;20072;-45
2021/03/27 08:06:15;;;;;;;0.00;0.00;;;15.90;59.70;;;;;;4197190;28;20060;-46
2021/03/27 08:09:22;;;;;;;0.10;0.10;;;15.90;59.70;;;;;;4197150;28;20056;-46
2021/03/27 08:12:13;;;;;;;0.00;0.00;;;15.80;59.50;;;;;;4180679;28;20053;-45
2021/03/27 08:14:56;;;;;;;0.00;0.00;;;15.80;59.50;;;;;;4189210;28;20086;-45
2021/03/27 08:17:38;;;;;;;0.00;0.00;;;15.70;59.50;;;;;;4196929;28;20052;-44
2021/03/27 08:20:24;;;;;;;0.00;0.00;;;15.60;59.60;;;;;;4196747;28;20486;-45
2021/03/27 08:23:26;;;;;;;0.00;0.00;;;15.60;59.70;;;;;;4196928;28;20071;-45
2021/03/27 08:26:07;;;;;;;0.00;0.00;;;15.50;59.90;;;;;;4195622;28;20529;-45
2021/03/27 08:29:07;;;;;;;2.05;0.28;;;15.40;59.80;;;;;;4193139;28;20157;-45
2021/03/27 08:31:58;;;;;;;3.63;0.73;;;15.40;59.80;;;;;;4195887;28;20362;-45
2021/03/27 08:35:10;;;;;;;0.00;0.00;;;15.30;59.60;;;;;;4196643;28;20414;-46
2021/03/27 08:37:41;;;;;;;0.00;0.00;;;15.30;59.40;;;;;;4184826;28;20303;-50
2021/03/27 08:40:34;;;;;;;0.00;0.00;;;15.20;59.30;;;;;;4196136;28;20514;-47
2021/03/27 08:43:23;;;;;;;0.00;0.00;;;15.20;59.40;;;;;;4196155;28;20487;-48
2021/03/27 08:46:19;;;;;;;0.05;0.05;;;15.20;59.20;;;;;;4183074;28;20048;-46
2021/03/27 08:49:14;;;;;;;0.00;0.00;;;15.20;59.40;;;;;;4195769;28;20836;-43
2021/03/27 08:51:49;;;;;;;0.00;0.00;;;15.20;59.80;;;;;;4190272;28;20499;-44
2021/03/27 08:54:41;;;;;;;0.00;0.00;;;15.10;60.60;;;;;;4196177;28;20086;-50
2021/03/27 08:57:37;;;;;;;0.00;0.00;;;15.20;60.80;;;;;;4195970;28;20139;-51
2021/03/27 09:00:31;;;;;;;0.30;0.30;;;15.40;60.70;;;;;;4184140;28;20549;-51
2021/03/27 09:03:15;;;;;;;0.00;0.00;;;15.70;60.00;;;;;;4196254;28;20083;-49
2021/03/27 09:05:54;;;;;;;0.00;0.00;;;15.90;60.00;;;;;;4178288;28;20461;-44
2021/03/27 09:08:32;;;;;;;0.00;0.00;;;15.90;59.50;;;;;;4196301;28;20053;-45
2021/03/27 09:11:17;;;;;;;0.05;0.05;;;15.90;59.60;;;;;;4196316;28;20388;-44
2021/03/27 09:13:53;;;;;;;0.52;0.52;;;15.90;59.60;;;;;;4196010;28;20056;-46
2021/03/27 09:16:37;;;;;;;0.05;0.05;;;15.90;59.80;;;;;;4195802;28;20044;-47
2021/03/27 09:19:24;;;;;;;0.00;0.00;;;16.00;59.90;;;;;;4196273;28;20049;-47
2021/03/27 09:22:01;;;;;;;0.90;0.90;;;16.00;60.10;;;;;;4196094;28;20048;-45
2021/03/27 09:24:31;;;;;;;0.00;0.00;;;16.10;60.10;;;;;;4196249;28;20059;-52
2021/03/27 09:27:14;;;;;;;0.00;0.00;;;16.30;59.90;;;;;;4196255;28;20620;-45
2021/03/27 09:29:49;;;;;;;0.55;0.55;;;16.40;59.60;;;;;;4196027;28;20052;-44
2021/03/27 09:32:22;;;;;;;0.15;0.15;;;16.60;59.10;;;;;;4195726;28;20048;-47
2021/03/27 09:35:16;;;;;;;0.17;0.17;;;16.70;58.90;;;;;;4195796;28;20056;-44
2021/03/27 09:38:08;;;;;;;0.85;0.85;;;16.80;58.80;;;;;;4184325;28;20566;-44
2021/03/27 09:40:34;;;;;;;0.00;0.00;;;16.90;58.70;;;;;;4191031;28;20060;-44
2021/03/27 09:43:26;;;;;;;0.22;0.22;;;16.90;58.50;;;;;;4195887;28;20056;-43
2021/03/27 09:45:57;;;;;;;0.00;0.00;;;16.80;58.50;;;;;;4196049;28;20063;-43
2021/03/27 09:48:28;;;;;;;;;;;16.80;58.60;;;;;;4196415;28;20072;-44
2021/03/27 09:50:53;;;;;;;2.30;0.45;;;16.70;58.70;;;;;;4195896;28;20379;-43
2021/03/27 09:53:28;;;;;;;1.65;1.13;;;16.60;59.70;;;;;;4195662;28;20049;-44
2021/03/27 09:55:55;;;;;;;0.00;0.00;;;16.50;59.20;;;;;;4195524;28;20072;-45
2021/03/27 09:58:29;;;;;;;0.00;0.00;;;16.30;59.20;;;;;;4195807;28;20049;-44
2021/03/27 10:01:04;;;;;;;0.00;0.00;;;16.30;59.30;;;;;;4195613;28;20080;-44
2021/03/27 10:03:33;;;;;;;0.00;0.00;;;16.20;59.70;;;;;;4195825;28;20049;-47
2021/03/27 10:06:00;;;;;;;1.02;0.47;;;16.10;60.00;;;;;;4195767;28;20495;-45
2021/03/27 10:08:26;;;;;;;0.00;0.00;;;16.10;61.30;;;;;;4195804;28;20048;-44
2021/03/27 10:10:58;;;;;;;0.00;0.00;;;16.30;60.30;;;;;;4195541;28;20418;-43
2021/03/27 10:13:44;;;;;;;0.63;0.63;;;16.70;59.20;;;;;;4195604;28;20131;-44
2021/03/27 10:16:09;;;;;;;0.22;0.22;;;17.40;57.60;;;;;;4195576;28;20804;-45
2021/03/27 10:18:35;;;;;;;0.00;0.00;;;17.90;56.30;;;;;;4195662;28;20414;-44
2021/03/27 10:21:02;;;;;;;0.00;0.00;;;18.40;55.10;;;;;;4195572;28;20059;-45
2021/03/27 10:23:37;;;;;;;0.00;0.00;;;18.80;54.60;;;;;;4195638;28;20052;-44
2021/03/27 10:26:29;;;;;;;0.28;0.28;;;19.10;53.90;;;;;;4195724;28;20067;-44
2021/03/27 10:28:55;;;;;;;0.70;0.43;;;19.40;53.20;;;;;;4195507;28;20084;-44
2021/03/27 10:31:19;;;;;;;0.00;0.00;;;19.40;52.70;;;;;;4195399;28;20457;-45
2021/03/27 10:33:49;;;;;;;0.00;0.00;;;19.40;52.70;;;;;;4195467;28;20091;-48
2021/03/27 10:36:42;;;;;;;0.00;0.00;;;19.20;52.90;;;;;;4195403;28;20055;-42
2021/03/27 10:39:29;;;;;;;0.10;0.10;;;19.00;53.50;;;;;;4195487;28;20052;-44
2021/03/27 10:42:44;;;;;;;0.00;0.00;;;18.70;54.30;;;;;;4195328;28;20147;-44
2021/03/27 10:45:50;;;;;;;0.45;0.45;;;18.60;54.80;;;;;;4146314;28;20073;-46
2021/03/27 10:48:29;;;;;;;0.00;0.00;;;18.60;55.10;;;;;;4160260;28;20081;-44
2021/03/27 10:51:06;;;;;;;0.00;0.00;;;18.80;54.90;;;;;;4191853;28;20053;-44
2021/03/27 10:53:36;;;;;;;0.15;0.15;;;18.80;55.00;;;;;;4195374;28;20064;-45
2021/03/27 10:56:12;;;;;;;0.00;0.00;;;18.70;54.90;;;;;;4195291;28;20057;-44
2021/03/27 10:59:11;;;;;;;0.00;0.00;;;18.80;54.80;;;;;;4195324;28;20060;-45
2021/03/27 11:02:19;;;;;;;0.00;0.00;;;18.90;54.60;;;;;;4189380;28;20143;-45
2021/03/27 11:05:16;;;;;;;0.00;0.00;;;18.90;54.60;;;;;;4195344;28;20106;-46
2021/03/27 11:08:14;;;;;;;0.00;0.00;;;18.80;54.80;;;;;;4195841;28;20102;-49
2021/03/27 11:10:59;;;;;;;0.90;0.90;;;18.70;55.10;;;;;;4198245;28;20147;-45
2021/03/27 11:14:01;;;;;;;0.00;0.00;;;18.60;55.10;;;;;;4198187;28;20056;-44
2021/03/27 11:16:56;;;;;;;0.00;0.00;;;18.60;55.30;;;;;;4198207;28;20124;-43
2021/03/27 11:20:02;;;;;;;0.00;0.00;;;18.60;55.40;;;;;;4198046;28;20061;-42
2021/03/27 11:23:07;;;;;;;0.00;0.00;;;18.50;55.20;;;;;;4197885;28;20048;-45
2021/03/27 11:26:16;;;;;;;1.35;1.27;;;18.40;55.80;;;;;;4177725;28;20057;-44
2021/03/27 11:28:43;;;;;;;0.00;0.00;;;18.20;56.00;;;;;;4197985;28;20083;-44
2021/03/27 11:31:24;;;;;;;0.00;0.00;;;18.10;56.30;;;;;;4197937;28;20524;-45
2021/03/27 11:34:01;;;;;;;0.00;0.00;;;18.00;56.70;;;;;;4197831;28;20419;-44
2021/03/27 11:36:24;;;;;;;0.00;0.00;;;17.90;57.00;;;;;;4197896;28;20117;-44
2021/03/27 11:38:53;;;;;;;0.00;0.00;;;17.80;57.20;;;;;;4197866;28;20129;-44
2021/03/27 11:41:22;;;;;;;0.00;0.00;;;17.70;57.00;;;;;;4197355;28;20052;-47
2021/03/27 11:44:17;;;;;;;0.00;0.00;;;17.60;57.20;;;;;;4197745;28;20698;-44
2021/03/27 11:46:43;;;;;;;0.00;0.00;;;17.70;57.10;;;;;;4181201;28;20053;-46
2021/03/27 11:49:10;;;;;;;0.00;0.00;;;17.80;56.90;;;;;;4196632;28;20087;-48
2021/03/27 11:51:38;;;;;;;0.00;0.00;;;18.00;56.80;;;;;;4197650;28;20067;-48
2021/03/27 11:54:13;;;;;;;0.00;0.00;;;18.00;56.30;;;;;;4197824;28;20063;-48
2021/03/27 11:56:46;;;;;;;0.10;0.10;;;18.10;56.10;;;;;;4197318;28;20053;-46
2021/03/27 12:00:47;;;;;;;0.00;0.00;;;18.30;55.60;;;;;;4197601;28;20135;-47
2021/03/27 12:02:54;;;;;;;0.55;0.55;;;18.40;55.40;;;;;;4180862;28;20059;-46
2021/03/27 12:05:21;;;;;;;0.00;0.00;;;18.30;55.30;;;;;;4180851;28;20662;-43
2021/03/27 12:07:55;;;;;;;0.00;0.00;;;18.30;55.60;;;;;;4179797;28;20107;-43
2021/03/27 12:10:28;;;;;;;0.00;0.00;;;18.30;55.70;;;;;;4180776;28;20556;-43
2021/03/27 12:12:58;;;;;;;0.00;0.00;;;18.30;55.60;;;;;;4180794;28;20045;-46
2021/03/27 12:15:29;;;;;;;0.00;0.00;;;18.40;55.40;;;;;;4180689;28;20053;-44
2021/03/27 12:18:00;;;;;;;0.00;0.00;;;18.40;55.40;;;;;;4180311;28;20097;-43
2021/03/27 12:20:28;;;;;;;0.00;0.00;;;18.40;55.60;;;;;;4188227;28;20052;-46
2021/03/27 12:22:57;;;;;;;0.20;0.20;;;18.30;55.70;;;;;;4196993;28;20098;-44
2021/03/27 12:25:29;;;;;;;0.00;0.00;;;18.30;55.80;;;;;;4196062;28;20095;-47
2021/03/27 12:28:02;;;;;;;0.00;0.00;;;18.20;56.00;;;;;;4197041;28;20057;-44
2021/03/27 12:30:36;;;;;;;0.00;0.00;;;18.10;56.30;;;;;;4197053;28;20400;-44
2021/03/27 12:33:06;;;;;;;0.08;0.08;;;18.00;56.40;;;;;;4197032;28;20060;-44
2021/03/27 12:35:31;;;;;;;0.00;0.00;;;18.00;56.70;;;;;;4197067;28;20056;-44
2021/03/27 12:38:09;;;;;;;3.63;0.55;;;17.90;56.70;;;;;;4196802;28;20214;-44
2021/03/27 12:40:34;;;;;;;0.00;0.00;;;17.90;56.90;;;;;;4196635;28;20057;-44
2021/03/27 12:43:06;;;;;;;0.00;0.00;;;18.00;56.80;;;;;;4196415;28;20057;-45
2021/03/27 12:45:35;;;;;;;0.00;0.00;;;18.10;56.60;;;;;;4196727;28;20056;-43
2021/03/27 12:48:20;;;;;;;0.00;0.00;;;18.20;56.30;;;;;;4196220;28;20052;-47
2021/03/27 12:51:03;;;;;;;0.00;0.00;;;18.30;56.10;;;;;;4196620;28;20495;-49
2021/03/27 12:53:55;;;;;;;0.13;0.13;;;18.40;56.00;;;;;;4196619;28;20126;-48
2021/03/27 12:56:33;;;;;;;0.00;0.00;;;18.40;55.90;;;;;;4196502;28;20048;-44
2021/03/27 12:59:07;;;;;;;0.00;0.00;;;18.40;55.90;;;;;;4196526;28;20052;-44
2021/03/27 13:01:43;;;;;;;0.08;0.08;;;18.50;55.70;;;;;;4192745;28;20061;-44
2021/03/27 13:04:30;;;;;;;0.00;0.00;;;18.70;55.40;;;;;;4179972;28;20049;-45
2021/03/27 13:07:00;;;;;;;0.00;0.00;;;18.70;55.30;;;;;;4179768;28;20076;-46
2021/03/27 13:09:52;;;;;;;0.00;0.00;;;18.60;55.40;;;;;;4179006;28;20151;-48
2021/03/27 13:12:19;;;;;;;0.00;0.00;;;18.60;55.50;;;;;;4179902;28;20053;-44
2021/03/27 13:15:13;;;;;;;0.00;0.00;;;18.60;56.30;;;;;;4179760;28;20139;-45
2021/03/27 13:17:46;;;;;;;0.00;0.00;;;18.60;55.80;;;;;;4195346;28;20135;-44
2021/03/27 13:20:17;;;;;;;0.00;0.00;;;18.40;55.90;;;;;;4196119;28;20114;-45
2021/03/27 13:22:46;;;;;;;0.00;0.00;;;18.40;56.30;;;;;;4196268;28;20095;-44
2021/03/27 13:25:20;;;;;;;0.00;0.00;;;18.30;56.50;;;;;;4196199;28;20048;-44
2021/03/27 13:27:46;;;;;;;0.00;0.00;;;18.20;56.70;;;;;;4196159;28;20080;-44
2021/03/27 13:30:33;;;;;;;0.00;0.00;;;18.30;56.80;;;;;;4195655;28;20465;-46
2021/03/27 13:33:13;;;;;;;0.00;0.00;;;18.30;56.60;;;;;;4196117;28;20075;-45
2021/03/27 13:36:01;;;;;;;0.38;0.38;;;18.30;56.70;;;;;;4195957;28;20055;-46
2021/03/27 13:38:27;;;;;;;0.00;0.00;;;18.30;56.80;;;;;;4196072;28;20829;-44
2021/03/27 13:40:52;;;;;;;0.00;0.00;;;18.20;56.90;;;;;;4195914;28;20060;-44
2021/03/27 13:43:18;;;;;;;0.00;0.00;;;18.20;57.00;;;;;;4195907;28;20135;-44